createdAt,value
2017-04-09T00:00:59.760Z,1017.07
2017-04-09T00:02:00.990Z,1017.05
2017-04-09T00:03:02.209Z,1017.05
2017-04-09T00:04:03.479Z,1017.03
2017-04-09T00:05:04.677Z,1017.09
2017-04-09T00:06:05.961Z,1017.02
2017-04-09T00:07:07.223Z,1017.08
2017-04-09T00:08:08.440Z,1017.03
2017-04-09T00:09:09.785Z,1017.04
2017-04-09T00:10:11.036Z,1017
2017-04-09T00:11:12.305Z,1017
2017-04-09T00:12:13.615Z,1016.98
2017-04-09T00:13:14.820Z,1016.99
2017-04-09T00:14:16.057Z,1016.99
2017-04-09T00:15:17.289Z,1016.98
2017-04-09T00:16:18.524Z,1016.95
2017-04-09T00:17:19.763Z,1016.94
2017-04-09T00:18:21.011Z,1016.94
2017-04-09T00:19:22.357Z,1016.91
2017-04-09T00:20:23.627Z,1016.92
2017-04-09T00:21:24.864Z,1016.91
2017-04-09T00:22:26.104Z,1016.87
2017-04-09T00:23:27.352Z,1016.89
2017-04-09T00:24:28.585Z,1016.88
2017-04-09T00:25:29.835Z,1016.91
2017-04-09T00:26:31.097Z,1016.88
2017-04-09T00:27:32.320Z,1016.88
2017-04-09T00:28:33.627Z,1016.89
2017-04-09T00:29:34.841Z,1016.84
2017-04-09T00:30:36.091Z,1016.88
2017-04-09T00:31:37.323Z,1016.83
2017-04-09T00:32:38.561Z,1016.87
2017-04-09T00:33:39.807Z,1016.88
2017-04-09T00:34:41.035Z,1016.87
2017-04-09T00:35:42.262Z,1016.88
2017-04-09T00:36:43.495Z,1016.88
2017-04-09T00:37:44.732Z,1016.84
2017-04-09T00:38:46.113Z,1016.84
2017-04-09T00:39:47.352Z,1016.83
2017-04-09T00:40:48.589Z,1016.83
2017-04-09T00:41:49.831Z,1016.83
2017-04-09T00:42:51.098Z,1016.8
2017-04-09T00:43:52.343Z,1016.86
2017-04-09T00:44:53.574Z,1016.84
2017-04-09T00:45:54.796Z,1016.88
2017-04-09T00:46:56.137Z,1016.84
2017-04-09T00:47:57.381Z,1016.86
2017-04-09T00:48:58.615Z,1016.84
2017-04-09T00:49:59.850Z,1016.86
2017-04-09T00:51:01.106Z,1016.84
2017-04-09T00:52:02.403Z,1016.85
2017-04-09T00:53:03.647Z,1016.85
2017-04-09T00:54:04.890Z,1016.81
2017-04-09T00:55:06.130Z,1016.84
2017-04-09T00:56:07.359Z,1016.84
2017-04-09T00:57:08.592Z,1016.8
2017-04-09T00:58:09.931Z,1016.84
2017-04-09T00:59:11.249Z,1016.81
2017-04-09T01:00:12.487Z,1016.78
2017-04-09T01:01:13.725Z,1016.8
2017-04-09T01:02:14.965Z,1016.78
2017-04-09T01:03:16.229Z,1016.85
2017-04-09T01:04:17.561Z,1016.86
2017-04-09T01:05:18.684Z,1016.82
2017-04-09T01:06:19.921Z,1016.86
2017-04-09T01:07:21.160Z,1016.84
2017-04-09T01:08:22.397Z,1016.84
2017-04-09T01:09:23.638Z,1016.85
2017-04-09T01:10:24.945Z,1016.83
2017-04-09T01:11:26.186Z,1016.84
2017-04-09T01:12:27.525Z,1016.81
2017-04-09T01:13:28.756Z,1016.81
2017-04-09T01:14:29.993Z,1016.84
2017-04-09T01:15:31.244Z,1016.8
2017-04-09T01:16:32.512Z,1016.82
2017-04-09T01:17:33.772Z,1016.81
2017-04-09T01:18:35.183Z,1016.8
2017-04-09T01:19:36.300Z,1016.78
2017-04-09T01:20:37.577Z,1016.8
2017-04-09T01:21:38.812Z,1016.76
2017-04-09T01:22:40.038Z,1016.75
2017-04-09T01:23:41.275Z,1016.74
2017-04-09T01:24:42.531Z,1016.76
2017-04-09T01:25:43.747Z,1016.71
2017-04-09T01:26:44.996Z,1016.74
2017-04-09T01:27:46.213Z,1016.77
2017-04-09T01:28:47.448Z,1016.75
2017-04-09T01:29:48.690Z,1016.75
2017-04-09T01:30:50.247Z,1016.73
2017-04-09T01:31:51.479Z,1016.74
2017-04-09T01:32:52.716Z,1016.73
2017-04-09T01:33:53.947Z,1016.66
2017-04-09T01:34:55.189Z,1016.69
2017-04-09T01:35:56.455Z,1016.68
2017-04-09T01:36:57.686Z,1016.7
2017-04-09T01:37:58.996Z,1016.71
2017-04-09T01:39:00.205Z,1016.71
2017-04-09T01:40:01.434Z,1016.69
2017-04-09T01:41:02.733Z,1016.65
2017-04-09T01:42:03.973Z,1016.68
2017-04-09T01:43:05.229Z,1016.63
2017-04-09T01:44:06.453Z,1016.64
2017-04-09T01:45:07.722Z,1016.62
2017-04-09T01:46:08.965Z,1016.61
2017-04-09T01:47:10.198Z,1016.62
2017-04-09T01:48:11.426Z,1016.64
2017-04-09T01:49:12.676Z,1016.64
2017-04-09T01:50:13.968Z,1016.61
2017-04-09T01:51:15.209Z,1016.6
2017-04-09T01:52:16.435Z,1016.64
2017-04-09T01:53:17.676Z,1016.63
2017-04-09T01:54:18.897Z,1016.64
2017-04-09T01:55:20.145Z,1016.66
2017-04-09T01:56:21.471Z,1016.65
2017-04-09T01:57:22.650Z,1016.63
2017-04-09T01:58:24.028Z,1016.66
2017-04-09T01:59:25.268Z,1016.64
2017-04-09T02:00:26.582Z,1016.65
2017-04-09T02:01:27.817Z,1016.68
2017-04-09T02:02:29.055Z,1016.67
2017-04-09T02:03:30.368Z,1016.71
2017-04-09T02:04:31.671Z,1016.69
2017-04-09T02:05:32.913Z,1016.67
2017-04-09T02:06:34.164Z,1016.68
2017-04-09T02:07:35.372Z,1016.72
2017-04-09T02:08:36.610Z,1016.69
2017-04-09T02:09:37.857Z,1016.61
2017-04-09T02:10:39.090Z,1016.62
2017-04-09T02:11:40.327Z,1016.61
2017-04-09T02:12:41.558Z,1016.64
2017-04-09T02:13:42.797Z,1016.6
2017-04-09T02:14:44.206Z,1016.66
2017-04-09T02:15:45.503Z,1016.63
2017-04-09T02:16:46.755Z,1016.59
2017-04-09T02:17:47.967Z,1016.63
2017-04-09T02:18:49.202Z,1016.64
2017-04-09T02:19:50.581Z,1016.62
2017-04-09T02:20:51.820Z,1016.62
2017-04-09T02:21:53.061Z,1016.6
2017-04-09T02:22:54.322Z,1016.61
2017-04-09T02:23:55.533Z,1016.58
2017-04-09T02:24:56.768Z,1016.6
2017-04-09T02:25:58.007Z,1016.55
2017-04-09T02:26:59.249Z,1016.55
2017-04-09T02:28:00.469Z,1016.54
2017-04-09T02:29:01.785Z,1016.53
2017-04-09T02:30:02.960Z,1016.54
2017-04-09T02:31:04.194Z,1016.54
2017-04-09T02:32:05.431Z,1016.51
2017-04-09T02:33:06.685Z,1016.51
2017-04-09T02:34:07.930Z,1016.46
2017-04-09T02:35:09.169Z,1016.55
2017-04-09T02:36:10.463Z,1016.49
2017-04-09T02:37:11.751Z,1016.51
2017-04-09T02:38:13.034Z,1016.51
2017-04-09T02:39:14.313Z,1016.47
2017-04-09T02:40:15.534Z,1016.47
2017-04-09T02:41:16.875Z,1016.47
2017-04-09T02:42:18.127Z,1016.46
2017-04-09T02:43:19.359Z,1016.42
2017-04-09T02:44:20.596Z,1016.45
2017-04-09T02:45:21.837Z,1016.46
2017-04-09T02:46:23.102Z,1016.47
2017-04-09T02:47:24.331Z,1016.42
2017-04-09T02:48:25.580Z,1016.44
2017-04-09T02:49:26.801Z,1016.44
2017-04-09T02:50:28.018Z,1016.42
2017-04-09T02:51:29.264Z,1016.43
2017-04-09T02:52:30.486Z,1016.4
2017-04-09T02:53:31.745Z,1016.43
2017-04-09T02:54:32.966Z,1016.43
2017-04-09T02:55:34.213Z,1016.43
2017-04-09T02:56:35.453Z,1016.4
2017-04-09T02:57:36.683Z,1016.42
2017-04-09T02:58:37.912Z,1016.44
2017-04-09T02:59:39.159Z,1016.44
2017-04-09T03:00:40.422Z,1016.41
2017-04-09T03:01:41.657Z,1016.41
2017-04-09T03:02:42.905Z,1016.38
2017-04-09T03:03:44.125Z,1016.39
2017-04-09T03:04:45.343Z,1016.37
2017-04-09T03:05:46.676Z,1016.37
2017-04-09T03:06:47.936Z,1016.38
2017-04-09T03:07:49.183Z,1016.37
2017-04-09T03:08:50.453Z,1016.37
2017-04-09T03:09:51.720Z,1016.37
2017-04-09T03:10:52.949Z,1016.37
2017-04-09T03:11:54.204Z,1016.37
2017-04-09T03:12:55.447Z,1016.36
2017-04-09T03:13:56.708Z,1016.35
2017-04-09T03:14:58.002Z,1016.37
2017-04-09T03:15:59.236Z,1016.38
2017-04-09T03:17:00.487Z,1016.32
2017-04-09T03:18:01.716Z,1016.37
2017-04-09T03:19:03.078Z,1016.37
2017-04-09T03:20:04.366Z,1016.38
2017-04-09T03:21:05.586Z,1016.37
2017-04-09T03:22:06.830Z,1016.37
2017-04-09T03:23:08.044Z,1016.35
2017-04-09T03:24:09.281Z,1016.4
2017-04-09T03:25:10.519Z,1016.35
2017-04-09T03:26:11.771Z,1016.34
2017-04-09T03:27:13.059Z,1016.33
2017-04-09T03:28:14.351Z,1016.33
2017-04-09T03:29:15.601Z,1016.33
2017-04-09T03:30:16.827Z,1016.3
2017-04-09T03:31:18.062Z,1016.35
2017-04-09T03:32:19.321Z,1016.32
2017-04-09T03:33:20.555Z,1016.37
2017-04-09T03:34:21.782Z,1016.32
2017-04-09T03:35:23.022Z,1016.3
2017-04-09T03:36:24.252Z,1016.34
2017-04-09T03:37:25.482Z,1016.32
2017-04-09T03:38:26.819Z,1016.36
2017-04-09T03:39:28.148Z,1016.32
2017-04-09T03:40:29.377Z,1016.3
2017-04-09T03:41:30.656Z,1016.32
2017-04-09T03:42:31.981Z,1016.31
2017-04-09T03:43:33.218Z,1016.28
2017-04-09T03:44:34.453Z,1016.31
2017-04-09T03:45:35.710Z,1016.26
2017-04-09T03:46:36.950Z,1016.31
2017-04-09T03:47:38.180Z,1016.3
2017-04-09T03:48:39.500Z,1016.27
2017-04-09T03:49:40.724Z,1016.31
2017-04-09T03:50:41.971Z,1016.3
2017-04-09T03:51:43.210Z,1016.29
2017-04-09T03:52:44.469Z,1016.34
2017-04-09T03:53:45.716Z,1016.3
2017-04-09T03:54:47.003Z,1016.33
2017-04-09T03:55:48.198Z,1016.31
2017-04-09T03:56:49.440Z,1016.32
2017-04-09T03:57:50.725Z,1016.34
2017-04-09T03:58:52.007Z,1016.31
2017-04-09T03:59:53.212Z,1016.37
2017-04-09T04:00:54.484Z,1016.38
2017-04-09T04:01:55.673Z,1016.37
2017-04-09T04:02:56.915Z,1016.32
2017-04-09T04:03:58.167Z,1016.32
2017-04-09T04:04:59.387Z,1016.34
2017-04-09T04:06:00.628Z,1016.36
2017-04-09T04:07:01.984Z,1016.3
2017-04-09T04:08:03.195Z,1016.36
2017-04-09T04:09:04.440Z,1016.31
2017-04-09T04:10:05.662Z,1016.36
2017-04-09T04:11:06.891Z,1016.36
2017-04-09T04:12:08.125Z,1016.36
2017-04-09T04:13:09.376Z,1016.33
2017-04-09T04:14:10.613Z,1016.35
2017-04-09T04:15:11.858Z,1016.36
2017-04-09T04:16:13.091Z,1016.36
2017-04-09T04:17:14.344Z,1016.35
2017-04-09T04:18:15.573Z,1016.37
2017-04-09T04:19:16.884Z,1016.4
2017-04-09T04:20:18.116Z,1016.36
2017-04-09T04:21:19.383Z,1016.36
2017-04-09T04:22:20.587Z,1016.38
2017-04-09T04:23:21.824Z,1016.39
2017-04-09T04:24:23.118Z,1016.31
2017-04-09T04:25:24.368Z,1016.35
2017-04-09T04:26:25.657Z,1016.35
2017-04-09T04:27:26.913Z,1016.32
2017-04-09T04:28:28.133Z,1016.32
2017-04-09T04:29:29.396Z,1016.31
2017-04-09T04:30:30.618Z,1016.3
2017-04-09T04:31:31.909Z,1016.34
2017-04-09T04:32:33.123Z,1016.31
2017-04-09T04:33:34.576Z,1016.33
2017-04-09T04:34:35.918Z,1016.35
2017-04-09T04:35:37.146Z,1016.31
2017-04-09T04:36:38.381Z,1016.37
2017-04-09T04:37:39.634Z,1016.36
2017-04-09T04:38:40.952Z,1016.37
2017-04-09T04:39:42.303Z,1016.38
2017-04-09T04:40:43.523Z,1016.39
2017-04-09T04:41:44.761Z,1016.39
2017-04-09T04:42:46.018Z,1016.41
2017-04-09T04:43:47.277Z,1016.4
2017-04-09T04:44:48.516Z,1016.37
2017-04-09T04:45:49.777Z,1016.41
2017-04-09T04:46:51.041Z,1016.4
2017-04-09T04:47:52.245Z,1016.4
2017-04-09T04:48:53.504Z,1016.44
2017-04-09T04:49:54.745Z,1016.47
2017-04-09T04:50:56.016Z,1016.44
2017-04-09T04:51:57.249Z,1016.46
2017-04-09T04:52:58.466Z,1016.46
2017-04-09T04:53:59.777Z,1016.48
2017-04-09T04:55:01.027Z,1016.48
2017-04-09T04:56:02.249Z,1016.49
2017-04-09T04:57:03.518Z,1016.49
2017-04-09T04:58:04.869Z,1016.49
2017-04-09T04:59:06.185Z,1016.53
2017-04-09T05:00:07.439Z,1016.55
2017-04-09T05:01:08.683Z,1016.54
2017-04-09T05:02:09.923Z,1016.56
2017-04-09T05:03:11.160Z,1016.53
2017-04-09T05:04:12.391Z,1016.58
2017-04-09T05:05:13.746Z,1016.6
2017-04-09T05:06:14.983Z,1016.61
2017-04-09T05:07:16.222Z,1016.59
2017-04-09T05:08:17.452Z,1016.58
2017-04-09T05:09:18.790Z,1016.62
2017-04-09T05:10:20.018Z,1016.62
2017-04-09T05:11:21.259Z,1016.61
2017-04-09T05:12:22.487Z,1016.64
2017-04-09T05:13:23.720Z,1016.64
2017-04-09T05:14:24.955Z,1016.6
2017-04-09T05:15:26.198Z,1016.64
2017-04-09T05:16:27.645Z,1016.63
2017-04-09T05:17:28.876Z,1016.62
2017-04-09T05:18:30.112Z,1016.64
2017-04-09T05:19:31.343Z,1016.67
2017-04-09T05:20:32.584Z,1016.68
2017-04-09T05:21:33.889Z,1016.65
2017-04-09T05:22:35.072Z,1016.69
2017-04-09T05:23:36.311Z,1016.66
2017-04-09T05:24:37.558Z,1016.67
2017-04-09T05:25:38.800Z,1016.7
2017-04-09T05:26:40.026Z,1016.74
2017-04-09T05:27:41.255Z,1016.69
2017-04-09T05:28:42.512Z,1016.71
2017-04-09T05:29:43.785Z,1016.75
2017-04-09T05:30:45.026Z,1016.72
2017-04-09T05:31:46.261Z,1016.73
2017-04-09T05:32:47.480Z,1016.72
2017-04-09T05:33:48.709Z,1016.71
2017-04-09T05:34:49.963Z,1016.72
2017-04-09T05:35:51.193Z,1016.7
2017-04-09T05:36:52.580Z,1016.72
2017-04-09T05:37:53.789Z,1016.75
2017-04-09T05:38:55.029Z,1016.77
2017-04-09T05:39:56.479Z,1016.72
2017-04-09T05:40:57.805Z,1016.79
2017-04-09T05:41:58.965Z,1016.76
2017-04-09T05:43:00.274Z,1016.7
2017-04-09T05:44:01.505Z,1016.68
2017-04-09T05:45:02.740Z,1016.68
2017-04-09T05:46:03.992Z,1016.7
2017-04-09T05:47:05.226Z,1016.73
2017-04-09T05:48:06.472Z,1016.73
2017-04-09T05:49:07.710Z,1016.74
2017-04-09T05:50:08.969Z,1016.66
2017-04-09T05:51:10.190Z,1016.71
2017-04-09T05:52:11.426Z,1016.73
2017-04-09T05:53:12.686Z,1016.72
2017-04-09T05:54:13.966Z,1016.77
2017-04-09T05:55:15.234Z,1016.75
2017-04-09T05:56:16.503Z,1016.75
2017-04-09T05:57:17.783Z,1016.81
2017-04-09T05:58:19.002Z,1016.79
2017-04-09T05:59:20.239Z,1016.82
2017-04-09T06:00:21.477Z,1016.83
2017-04-09T06:01:22.722Z,1016.83
2017-04-09T06:02:24.028Z,1016.8
2017-04-09T06:03:25.247Z,1016.83
2017-04-09T06:04:26.506Z,1016.8
2017-04-09T06:05:27.734Z,1016.82
2017-04-09T06:06:29.196Z,1016.81
2017-04-09T06:07:30.601Z,1016.81
2017-04-09T06:08:31.883Z,1016.81
2017-04-09T06:09:33.121Z,1016.82
2017-04-09T06:10:34.418Z,1016.85
2017-04-09T06:11:35.658Z,1016.86
2017-04-09T06:12:36.953Z,1016.88
2017-04-09T06:13:38.161Z,1016.92
2017-04-09T06:14:39.443Z,1016.89
2017-04-09T06:15:40.689Z,1016.91
2017-04-09T06:16:41.934Z,1016.93
2017-04-09T06:17:43.192Z,1016.93
2017-04-09T06:18:44.441Z,1016.94
2017-04-09T06:19:45.698Z,1016.96
2017-04-09T06:20:46.951Z,1016.96
2017-04-09T06:21:48.185Z,1016.94
2017-04-09T06:22:49.426Z,1016.96
2017-04-09T06:23:50.675Z,1016.99
2017-04-09T06:24:51.921Z,1016.92
2017-04-09T06:25:53.155Z,1016.94
2017-04-09T06:26:54.492Z,1016.95
2017-04-09T06:27:55.781Z,1016.97
2017-04-09T06:28:57.020Z,1016.98
2017-04-09T06:29:58.257Z,1016.99
2017-04-09T06:30:59.498Z,1016.96
2017-04-09T06:32:00.767Z,1016.94
2017-04-09T06:33:02.266Z,1016.89
2017-04-09T06:34:03.506Z,1016.89
2017-04-09T06:35:04.755Z,1016.86
2017-04-09T06:36:05.990Z,1016.89
2017-04-09T06:37:07.294Z,1016.89
2017-04-09T06:38:08.545Z,1016.91
2017-04-09T06:39:09.899Z,1016.94
2017-04-09T06:40:11.141Z,1016.93
2017-04-09T06:41:12.386Z,1016.95
2017-04-09T06:42:13.628Z,1016.97
2017-04-09T06:43:14.908Z,1016.98
2017-04-09T06:44:16.420Z,1016.99
2017-04-09T06:45:17.681Z,1017.01
2017-04-09T06:46:18.951Z,1017.02
2017-04-09T06:47:20.168Z,1017.05
2017-04-09T06:48:21.416Z,1017.09
2017-04-09T06:49:22.703Z,1017.09
2017-04-09T06:50:24.053Z,1017.06
2017-04-09T06:51:25.294Z,1017.1
2017-04-09T06:52:26.545Z,1017.11
2017-04-09T06:53:27.791Z,1017.08
2017-04-09T06:54:29.136Z,1017.1
2017-04-09T06:55:30.419Z,1017.12
2017-04-09T06:56:31.658Z,1017.11
2017-04-09T06:57:32.897Z,1017.15
2017-04-09T06:58:34.154Z,1017.14
2017-04-09T06:59:35.377Z,1017.15
2017-04-09T07:00:36.638Z,1017.16
2017-04-09T07:01:37.915Z,1017.15
2017-04-09T07:02:39.166Z,1017.19
2017-04-09T07:03:40.473Z,1017.18
2017-04-09T07:04:41.745Z,1017.18
2017-04-09T07:05:43.002Z,1017.19
2017-04-09T07:06:44.298Z,1017.24
2017-04-09T07:07:45.563Z,1017.22
2017-04-09T07:08:46.823Z,1017.21
2017-04-09T07:09:48.078Z,1017.21
2017-04-09T07:10:49.370Z,1017.23
2017-04-09T07:11:50.605Z,1017.28
2017-04-09T07:12:51.858Z,1017.26
2017-04-09T07:13:53.119Z,1017.27
2017-04-09T07:14:54.433Z,1017.28
2017-04-09T07:15:55.697Z,1017.28
2017-04-09T07:16:56.952Z,1017.31
2017-04-09T07:17:58.201Z,1017.29
2017-04-09T07:18:59.470Z,1017.27
2017-04-09T07:20:00.782Z,1017.32
2017-04-09T07:21:02.039Z,1017.33
2017-04-09T07:22:03.299Z,1017.32
2017-04-09T07:23:04.598Z,1017.32
2017-04-09T07:24:05.876Z,1017.32
2017-04-09T07:25:07.107Z,1017.35
2017-04-09T07:26:08.374Z,1017.37
2017-04-09T07:27:09.715Z,1017.38
2017-04-09T07:28:10.862Z,1017.37
2017-04-09T07:29:12.177Z,1017.4
2017-04-09T07:30:13.429Z,1017.36
2017-04-09T07:31:14.709Z,1017.39
2017-04-09T07:32:16.012Z,1017.37
2017-04-09T07:33:17.272Z,1017.39
2017-04-09T07:34:18.527Z,1017.38
2017-04-09T07:35:19.824Z,1017.42
2017-04-09T07:36:21.077Z,1017.4
2017-04-09T07:37:22.322Z,1017.38
2017-04-09T07:38:23.592Z,1017.39
2017-04-09T07:39:24.882Z,1017.44
2017-04-09T07:40:26.169Z,1017.41
2017-04-09T07:41:27.441Z,1017.44
2017-04-09T07:42:28.713Z,1017.42
2017-04-09T07:43:30.010Z,1017.42
2017-04-09T07:44:31.272Z,1017.46
2017-04-09T07:45:32.650Z,1017.48
2017-04-09T07:46:33.889Z,1017.47
2017-04-09T07:47:35.160Z,1017.5
2017-04-09T07:48:36.416Z,1017.52
2017-04-09T07:49:37.649Z,1017.49
2017-04-09T07:50:38.935Z,1017.52
2017-04-09T07:51:40.178Z,1017.54
2017-04-09T07:52:41.507Z,1017.54
2017-04-09T07:53:42.694Z,1017.58
2017-04-09T07:54:43.971Z,1017.58
2017-04-09T07:55:45.230Z,1017.6
2017-04-09T07:56:46.543Z,1017.57
2017-04-09T07:57:47.794Z,1017.62
2017-04-09T07:58:49.078Z,1017.62
2017-04-09T07:59:50.326Z,1017.63
2017-04-09T08:00:51.576Z,1017.61
2017-04-09T08:01:52.941Z,1017.64
2017-04-09T08:02:54.179Z,1017.58
2017-04-09T08:03:55.448Z,1017.63
2017-04-09T08:04:56.701Z,1017.6
2017-04-09T08:05:58.031Z,1017.62
2017-04-09T08:06:59.285Z,1017.6
2017-04-09T08:08:00.508Z,1017.61
2017-04-09T08:09:01.763Z,1017.59
2017-04-09T08:10:03.022Z,1017.57
2017-04-09T08:11:04.416Z,1017.59
2017-04-09T08:12:05.664Z,1017.58
2017-04-09T08:13:06.913Z,1017.53
2017-04-09T08:14:08.185Z,1017.52
2017-04-09T08:15:09.425Z,1017.54
2017-04-09T08:16:10.721Z,1017.53
2017-04-09T08:17:11.962Z,1017.51
2017-04-09T08:18:13.223Z,1017.55
2017-04-09T08:19:14.490Z,1017.51
2017-04-09T08:20:15.742Z,1017.53
2017-04-09T08:21:17.038Z,1017.51
2017-04-09T08:22:18.282Z,1017.5
2017-04-09T08:23:19.543Z,1017.47
2017-04-09T08:24:20.790Z,1017.51
2017-04-09T08:25:22.136Z,1017.51
2017-04-09T08:26:23.347Z,1017.48
2017-04-09T08:27:24.672Z,1017.51
2017-04-09T08:28:25.928Z,1017.48
2017-04-09T08:29:27.171Z,1017.51
2017-04-09T08:30:28.444Z,1017.53
2017-04-09T08:31:29.690Z,1017.53
2017-04-09T08:32:30.962Z,1017.52
2017-04-09T08:33:32.241Z,1017.56
2017-04-09T08:34:33.517Z,1017.55
2017-04-09T08:35:34.746Z,1017.53
2017-04-09T08:36:36.023Z,1017.55
2017-04-09T08:37:37.266Z,1017.52
2017-04-09T08:38:38.539Z,1017.57
2017-04-09T08:39:39.790Z,1017.55
2017-04-09T08:40:41.042Z,1017.6
2017-04-09T08:41:42.357Z,1017.57
2017-04-09T08:42:43.701Z,1017.59
2017-04-09T08:43:45.027Z,1017.6
2017-04-09T08:44:46.409Z,1017.58
2017-04-09T08:45:47.814Z,1017.53
2017-04-09T08:46:49.079Z,1017.59
2017-04-09T08:47:50.347Z,1017.6
2017-04-09T08:48:51.630Z,1017.62
2017-04-09T08:49:52.852Z,1017.6
2017-04-09T08:50:54.133Z,1017.64
2017-04-09T08:51:55.454Z,1017.74
2017-04-09T08:52:56.787Z,1017.71
2017-04-09T08:53:58.071Z,1017.71
2017-04-09T08:54:59.322Z,1017.76
2017-04-09T08:56:00.630Z,1017.76
2017-04-09T08:57:02.014Z,1017.9
2017-04-09T08:58:03.287Z,1017.96
2017-04-09T08:59:04.529Z,1017.98
2017-04-09T09:00:05.781Z,1018
2017-04-09T09:01:07.094Z,1017.99
2017-04-09T09:02:08.348Z,1018.07
2017-04-09T09:03:09.604Z,1018.04
2017-04-09T09:04:10.967Z,1018.06
2017-04-09T09:05:12.217Z,1018.09
2017-04-09T09:06:13.491Z,1018.06
2017-04-09T09:07:14.752Z,1018.06
2017-04-09T09:08:16.032Z,1018.08
2017-04-09T09:09:17.282Z,1018.04
2017-04-09T09:10:18.550Z,1018.05
2017-04-09T09:11:19.815Z,1017.99
2017-04-09T09:12:21.082Z,1018.01
2017-04-09T09:13:22.338Z,1017.95
2017-04-09T09:14:23.595Z,1017.93
2017-04-09T09:15:24.863Z,1017.91
2017-04-09T09:16:26.115Z,1017.86
2017-04-09T09:17:27.391Z,1017.81
2017-04-09T09:18:28.653Z,1017.8
2017-04-09T09:19:29.906Z,1017.77
2017-04-09T09:20:31.219Z,1017.78
2017-04-09T09:21:32.521Z,1017.69
2017-04-09T09:22:33.931Z,1017.71
2017-04-09T09:23:35.197Z,1017.72
2017-04-09T09:24:36.469Z,1017.73
2017-04-09T09:25:37.727Z,1017.71
2017-04-09T09:26:39.062Z,1017.76
2017-04-09T09:27:40.367Z,1017.78
2017-04-09T09:28:41.631Z,1017.76
2017-04-09T09:29:42.896Z,1017.8
2017-04-09T09:30:44.180Z,1017.8
2017-04-09T09:31:45.424Z,1017.86
2017-04-09T09:32:46.811Z,1017.85
2017-04-09T09:33:48.112Z,1017.87
2017-04-09T09:34:49.329Z,1017.89
2017-04-09T09:35:50.590Z,1017.98
2017-04-09T09:36:51.847Z,1018
2017-04-09T09:37:53.278Z,1018
2017-04-09T09:38:54.484Z,1017.98
2017-04-09T09:39:55.754Z,1017.97
2017-04-09T09:40:56.995Z,1017.99
2017-04-09T09:41:58.266Z,1017.97
2017-04-09T09:42:59.518Z,1017.86
2017-04-09T09:44:00.781Z,1017.82
2017-04-09T09:45:02.079Z,1017.79
2017-04-09T09:46:03.538Z,1017.75
2017-04-09T09:47:04.813Z,1017.73
2017-04-09T09:48:06.080Z,1017.7
2017-04-09T09:49:07.348Z,1017.71
2017-04-09T09:50:08.778Z,1017.65
2017-04-09T09:51:10.035Z,1017.63
2017-04-09T09:52:11.300Z,1017.6
2017-04-09T09:53:12.566Z,1017.63
2017-04-09T09:54:13.814Z,1017.6
2017-04-09T09:55:15.100Z,1017.58
2017-04-09T09:56:16.449Z,1017.52
2017-04-09T09:57:17.752Z,1017.54
2017-04-09T09:58:19.013Z,1017.56
2017-04-09T09:59:20.271Z,1017.48
2017-04-09T10:00:21.528Z,1017.42
2017-04-09T10:01:22.838Z,1017.45
2017-04-09T10:02:24.273Z,1017.37
2017-04-09T10:03:25.505Z,1017.41
2017-04-09T10:04:26.763Z,1017.35
2017-04-09T10:05:28.012Z,1017.37
2017-04-09T10:06:29.283Z,1017.41
2017-04-09T10:07:30.592Z,1017.4
2017-04-09T10:08:31.841Z,1017.36
2017-04-09T10:09:33.112Z,1017.33
2017-04-09T10:10:34.371Z,1017.33
2017-04-09T10:11:35.647Z,1017.34
2017-04-09T10:12:36.944Z,1017.33
2017-04-09T10:13:38.195Z,1017.32
2017-04-09T10:14:39.440Z,1017.34
2017-04-09T10:15:40.722Z,1017.32
2017-04-09T10:16:41.973Z,1017.29
2017-04-09T10:17:43.238Z,1017.35
2017-04-09T10:18:44.513Z,1017.37
2017-04-09T10:19:45.802Z,1017.28
2017-04-09T10:20:47.089Z,1017.14
2017-04-09T10:21:48.452Z,1017.07
2017-04-09T10:22:49.717Z,1017.01
2017-04-09T10:23:51.027Z,1016.98
2017-04-09T10:24:52.339Z,1016.97
2017-04-09T10:25:53.594Z,1016.93
2017-04-09T10:26:54.885Z,1016.92
2017-04-09T10:27:56.125Z,1016.93
2017-04-09T10:28:57.385Z,1016.91
2017-04-09T10:29:58.649Z,1016.9
2017-04-09T10:30:59.925Z,1016.88
2017-04-09T10:32:01.198Z,1016.87
2017-04-09T10:33:02.588Z,1016.83
2017-04-09T10:34:03.850Z,1016.81
2017-04-09T10:35:05.119Z,1016.78
2017-04-09T10:36:06.393Z,1016.78
2017-04-09T10:37:07.636Z,1016.77
2017-04-09T10:38:09.016Z,1016.77
2017-04-09T10:39:10.276Z,1016.72
2017-04-09T10:40:11.538Z,1016.73
2017-04-09T10:41:12.795Z,1016.64
2017-04-09T10:42:14.095Z,1016.67
2017-04-09T10:43:15.522Z,1016.6
2017-04-09T10:44:16.817Z,1016.6
2017-04-09T10:45:18.116Z,1016.58
2017-04-09T10:46:19.337Z,1016.57
2017-04-09T10:47:20.584Z,1016.57
2017-04-09T10:48:21.847Z,1016.58
2017-04-09T10:49:23.186Z,1016.59
2017-04-09T10:50:24.453Z,1016.51
2017-04-09T10:51:25.735Z,1016.54
2017-04-09T10:52:26.988Z,1016.53
2017-04-09T10:53:28.243Z,1016.5
2017-04-09T10:54:29.495Z,1016.51
2017-04-09T10:55:30.800Z,1016.51
2017-04-09T10:56:32.091Z,1016.52
2017-04-09T10:57:33.349Z,1016.46
2017-04-09T10:58:34.597Z,1016.47
2017-04-09T10:59:35.850Z,1016.45
2017-04-09T11:00:37.115Z,1016.42
2017-04-09T11:01:38.438Z,1016.41
2017-04-09T11:02:39.689Z,1016.4
2017-04-09T11:03:40.944Z,1016.38
2017-04-09T11:04:42.193Z,1016.4
2017-04-09T11:05:43.448Z,1016.4
2017-04-09T11:06:44.719Z,1016.43
2017-04-09T11:07:46.020Z,1016.4
2017-04-09T11:08:47.266Z,1016.43
2017-04-09T11:09:48.522Z,1016.41
2017-04-09T11:10:49.766Z,1016.4
2017-04-09T11:11:51.045Z,1016.35
2017-04-09T11:12:52.404Z,1016.33
2017-04-09T11:13:53.585Z,1016.35
2017-04-09T11:14:54.862Z,1016.38
2017-04-09T11:15:56.241Z,1016.35
2017-04-09T11:16:57.494Z,1016.34
2017-04-09T11:17:58.734Z,1016.31
2017-04-09T11:18:59.981Z,1016.3
2017-04-09T11:20:01.234Z,1016.32
2017-04-09T11:21:02.568Z,1016.28
2017-04-09T11:22:03.883Z,1016.35
2017-04-09T11:23:05.139Z,1016.31
2017-04-09T11:24:06.408Z,1016.34
2017-04-09T11:25:07.655Z,1016.32
2017-04-09T11:26:08.916Z,1016.33
2017-04-09T11:27:10.180Z,1016.31
2017-04-09T11:28:11.428Z,1016.31
2017-04-09T11:29:12.696Z,1016.32
2017-04-09T11:30:13.929Z,1016.37
2017-04-09T11:31:15.214Z,1016.34
2017-04-09T11:32:16.539Z,1016.35
2017-04-09T11:33:17.803Z,1016.32
2017-04-09T11:34:19.060Z,1016.33
2017-04-09T11:35:20.316Z,1016.31
2017-04-09T11:36:21.555Z,1016.28
2017-04-09T11:37:22.899Z,1016.27
2017-04-09T11:38:24.154Z,1016.27
2017-04-09T11:39:25.431Z,1016.26
2017-04-09T11:40:26.619Z,1016.23
2017-04-09T11:41:27.893Z,1016.23
2017-04-09T11:42:29.151Z,1016.21
2017-04-09T11:43:30.410Z,1016.18
2017-04-09T11:44:31.684Z,1016.17
2017-04-09T11:45:32.951Z,1016.22
2017-04-09T11:46:34.179Z,1016.16
2017-04-09T11:47:35.430Z,1016.21
2017-04-09T11:48:36.672Z,1016.2
2017-04-09T11:49:37.952Z,1016.17
2017-04-09T11:50:39.240Z,1016.16
2017-04-09T11:51:40.471Z,1016.12
2017-04-09T11:52:41.701Z,1016.14
2017-04-09T11:53:42.950Z,1016.12
2017-04-09T11:54:44.193Z,1016.1
2017-04-09T11:55:45.437Z,1016.07
2017-04-09T11:56:46.805Z,1016.11
2017-04-09T11:57:48.321Z,1016.12
2017-04-09T11:58:49.564Z,1016.08
2017-04-09T11:59:50.817Z,1016.04
2017-04-09T12:00:52.078Z,1016.07
2017-04-09T12:01:53.394Z,1016.04
2017-04-09T12:02:54.706Z,1016.05
2017-04-09T12:03:55.967Z,1016.01
2017-04-09T12:04:57.252Z,1015.96
2017-04-09T12:05:58.483Z,1015.94
2017-04-09T12:06:59.717Z,1015.96
2017-04-09T12:08:00.969Z,1015.93
2017-04-09T12:09:02.440Z,1015.91
2017-04-09T12:10:03.872Z,1015.89
2017-04-09T12:11:05.138Z,1015.88
2017-04-09T12:12:06.385Z,1015.84
2017-04-09T12:13:07.644Z,1015.81
2017-04-09T12:14:08.945Z,1015.82
2017-04-09T12:15:10.180Z,1015.82
2017-04-09T12:16:11.419Z,1015.75
2017-04-09T12:17:12.672Z,1015.74
2017-04-09T12:18:13.907Z,1015.72
2017-04-09T12:19:15.170Z,1015.7
2017-04-09T12:20:16.554Z,1015.72
2017-04-09T12:21:17.808Z,1015.73
2017-04-09T12:22:19.053Z,1015.69
2017-04-09T12:23:20.297Z,1015.69
2017-04-09T12:24:21.564Z,1015.67